Hlavní strana
METAR-TAF:

METAR-TAF

Letiště :

Stockholm-Arlanda, Švédsko

zeměpisná šířka: 59-39N, zeměpisná délka: 017-57E, výška: 38 m

Aktuální stav počasí

Zpráva byla vytvořena před 38 minutami, v 17:20 UTC
Západní vítr 7 kt
Teplota -7°C
Vlhkost vzduchu 86%
Tlak 1005 hPa
Viditelnost 10 km a více
Žádná oblačnost pod 1500 m, nevyskytují se cumulonimby.

METAR: ESSA 181720Z 28007KT CAVOK M07/M09 Q1005 R01L/19//66 R08/19//67 R01R/SNOCLO NOSIG

Čas: 18:58 (17:58 UTC)

Předpověď počasí

Zpráva byla vytvořena před 28 minutami, v 17:30 UTC
Předpověď platná od 18 v 18 UTC do 19 v 18 UTC
Západní vítr 8 kt
Viditelnost 10 km a více
Žádná oblačnost pod 1500 m, nevyskytují se cumulonimby.

TAF: ESSA 181730Z 1818/1918 28008KT CAVOK

Stav a předpovědi počasí z více než 4 000 letišť (zprávy METAR a TAF).

Červené a žluté tečky na mapě představují dostupné meteorologické stanice.

Když kurzor umístíte na tečku, zobrazí se název stanice.

Pak kliknutím zobrazíte stav a předpověď počasí.

Chcete-li změnit mapu, kliknutím na zelené tlačítko se znaménkem +mapu přiblížíte, kliknutím na zelené tlačítko se znaménkem – mapu oddálíte a kliknutím na zelené šipky přejdete na sousední mapy.


METAR-TAF: